sensor_id;sensor_type;location;lat;lon;timestamp;P1;durP1;ratioP1;P2;durP2;ratioP2
10497;SDS011;5296;51.060;13.750;2023-06-26T00:00:40;6.00;;;5.50;;
10497;SDS011;5296;51.060;13.750;2023-06-26T00:05:42;6.07;;;5.57;;
10497;SDS011;5296;51.060;13.750;2023-06-26T00:10:44;6.57;;;5.53;;
10497;SDS011;5296;51.060;13.750;2023-06-26T00:15:47;8.88;;;5.45;;
10497;SDS011;5296;51.060;13.750;2023-06-26T00:20:49;5.90;;;5.35;;
10497;SDS011;5296;51.060;13.750;2023-06-26T00:25:51;6.07;;;5.55;;
10497;SDS011;5296;51.060;13.750;2023-06-26T00:30:52;5.60;;;5.20;;
10497;SDS011;5296;51.060;13.750;2023-06-26T00:35:55;7.13;;;5.85;;
10497;SDS011;5296;51.060;13.750;2023-06-26T00:40:56;6.40;;;5.80;;
10497;SDS011;5296;51.060;13.750;2023-06-26T00:45:58;6.30;;;5.45;;
10497;SDS011;5296;51.060;13.750;2023-06-26T00:51:00;6.53;;;5.70;;
10497;SDS011;5296;51.060;13.750;2023-06-26T00:56:02;6.13;;;5.60;;
10497;SDS011;5296;51.060;13.750;2023-06-26T01:01:04;6.88;;;6.18;;
10497;SDS011;5296;51.060;13.750;2023-06-26T01:06:11;6.03;;;5.43;;
10497;SDS011;5296;51.060;13.750;2023-06-26T01:11:13;6.38;;;5.65;;
10497;SDS011;5296;51.060;13.750;2023-06-26T01:16:15;6.65;;;5.40;;
10497;SDS011;5296;51.060;13.750;2023-06-26T01:21:20;6.18;;;5.68;;
10497;SDS011;5296;51.060;13.750;2023-06-26T01:26:22;5.55;;;5.05;;
10497;SDS011;5296;51.060;13.750;2023-06-26T01:31:24;6.25;;;5.65;;
10497;SDS011;5296;51.060;13.750;2023-06-26T01:36:28;6.20;;;5.60;;
10497;SDS011;5296;51.060;13.750;2023-06-26T01:41:30;6.68;;;6.03;;
10497;SDS011;5296;51.060;13.750;2023-06-26T01:57:23;6.82;;;6.13;;
10497;SDS011;5296;51.060;13.750;2023-06-26T02:02:28;6.45;;;5.85;;
10497;SDS011;5296;51.060;13.750;2023-06-26T02:07:30;6.68;;;5.88;;
10497;SDS011;5296;51.060;13.750;2023-06-26T02:12:32;8.43;;;6.13;;
10497;SDS011;5296;51.060;13.750;2023-06-26T02:17:33;6.38;;;5.88;;
10497;SDS011;5296;51.060;13.750;2023-06-26T02:22:36;7.68;;;5.95;;
10497;SDS011;5296;51.060;13.750;2023-06-26T02:27:38;7.28;;;6.13;;
10497;SDS011;5296;51.060;13.750;2023-06-26T02:32:40;6.32;;;5.72;;
10497;SDS011;5296;51.060;13.750;2023-06-26T02:37:41;6.97;;;6.38;;
10497;SDS011;5296;51.060;13.750;2023-06-26T02:42:43;6.88;;;6.07;;
10497;SDS011;5296;51.060;13.750;2023-06-26T02:47:45;6.82;;;6.10;;
10497;SDS011;5296;51.060;13.750;2023-06-26T02:52:47;6.65;;;5.60;;
10497;SDS011;5296;51.060;13.750;2023-06-26T02:57:55;7.68;;;5.93;;
10497;SDS011;5296;51.060;13.750;2023-06-26T03:02:57;6.78;;;6.00;;
10497;SDS011;5296;51.060;13.750;2023-06-26T03:07:59;6.93;;;6.30;;
10497;SDS011;5296;51.060;13.750;2023-06-26T03:13:01;6.63;;;6.03;;
10497;SDS011;5296;51.060;13.750;2023-06-26T03:18:02;7.97;;;5.72;;
10497;SDS011;5296;51.060;13.750;2023-06-26T03:23:05;6.68;;;5.85;;
10497;SDS011;5296;51.060;13.750;2023-06-26T03:28:07;6.40;;;5.80;;
10497;SDS011;5296;51.060;13.750;2023-06-26T03:33:09;7.20;;;6.50;;
10497;SDS011;5296;51.060;13.750;2023-06-26T03:38:11;6.75;;;6.05;;
10497;SDS011;5296;51.060;13.750;2023-06-26T03:43:15;6.55;;;5.95;;
10497;SDS011;5296;51.060;13.750;2023-06-26T03:48:24;7.18;;;6.05;;
10497;SDS011;5296;51.060;13.750;2023-06-26T03:53:26;8.15;;;6.07;;
10497;SDS011;5296;51.060;13.750;2023-06-26T03:58:27;7.15;;;6.45;;
10497;SDS011;5296;51.060;13.750;2023-06-26T04:03:29;6.57;;;5.97;;
10497;SDS011;5296;51.060;13.750;2023-06-26T04:08:31;7.45;;;6.75;;
10497;SDS011;5296;51.060;13.750;2023-06-26T04:13:33;6.47;;;5.88;;
10497;SDS011;5296;51.060;13.750;2023-06-26T04:18:35;6.75;;;6.13;;
10497;SDS011;5296;51.060;13.750;2023-06-26T04:23:37;6.90;;;6.20;;
10497;SDS011;5296;51.060;13.750;2023-06-26T04:28:39;7.20;;;5.80;;
10497;SDS011;5296;51.060;13.750;2023-06-26T04:33:41;7.03;;;6.40;;
10497;SDS011;5296;51.060;13.750;2023-06-26T04:38:44;10.63;;;6.28;;
10497;SDS011;5296;51.060;13.750;2023-06-26T04:43:45;7.22;;;6.13;;
10497;SDS011;5296;51.060;13.750;2023-06-26T04:48:47;7.15;;;6.13;;
10497;SDS011;5296;51.060;13.750;2023-06-26T04:53:49;8.00;;;6.22;;
10497;SDS011;5296;51.060;13.750;2023-06-26T04:58:50;7.68;;;5.75;;
10497;SDS011;5296;51.060;13.750;2023-06-26T05:03:52;6.38;;;5.75;;
10497;SDS011;5296;51.060;13.750;2023-06-26T05:08:54;7.22;;;5.68;;
10497;SDS011;5296;51.060;13.750;2023-06-26T05:13:55;6.45;;;5.75;;
10497;SDS011;5296;51.060;13.750;2023-06-26T05:18:57;9.40;;;5.80;;
10497;SDS011;5296;51.060;13.750;2023-06-26T05:24:00;8.98;;;5.63;;
10497;SDS011;5296;51.060;13.750;2023-06-26T05:29:04;5.68;;;5.22;;
10497;SDS011;5296;51.060;13.750;2023-06-26T05:34:06;6.03;;;5.28;;
10497;SDS011;5296;51.060;13.750;2023-06-26T05:39:09;7.63;;;5.90;;
10497;SDS011;5296;51.060;13.750;2023-06-26T05:44:11;6.97;;;5.63;;
10497;SDS011;5296;51.060;13.750;2023-06-26T05:49:12;5.65;;;5.15;;
10497;SDS011;5296;51.060;13.750;2023-06-26T05:54:15;6.50;;;5.50;;
10497;SDS011;5296;51.060;13.750;2023-06-26T05:59:17;5.88;;;5.30;;
10497;SDS011;5296;51.060;13.750;2023-06-26T06:04:20;6.28;;;5.03;;
10497;SDS011;5296;51.060;13.750;2023-06-26T06:09:23;6.18;;;4.82;;
10497;SDS011;5296;51.060;13.750;2023-06-26T06:14:24;5.78;;;5.20;;
10497;SDS011;5296;51.060;13.750;2023-06-26T06:19:26;5.43;;;4.80;;
10497;SDS011;5296;51.060;13.750;2023-06-26T06:24:28;4.95;;;4.45;;
10497;SDS011;5296;51.060;13.750;2023-06-26T06:29:29;5.32;;;4.80;;
10497;SDS011;5296;51.060;13.750;2023-06-26T06:34:31;6.13;;;4.63;;
10497;SDS011;5296;51.060;13.750;2023-06-26T06:39:33;9.65;;;5.07;;
10497;SDS011;5296;51.060;13.750;2023-06-26T06:44:34;5.13;;;4.72;;
10497;SDS011;5296;51.060;13.750;2023-06-26T06:49:36;4.90;;;4.50;;
10497;SDS011;5296;51.060;13.750;2023-06-26T06:54:51;5.47;;;4.97;;
10497;SDS011;5296;51.060;13.750;2023-06-26T06:59:54;5.55;;;4.47;;
10497;SDS011;5296;51.060;13.750;2023-06-26T07:04:56;5.95;;;4.82;;
10497;SDS011;5296;51.060;13.750;2023-06-26T07:10:01;6.15;;;4.50;;
10497;SDS011;5296;51.060;13.750;2023-06-26T07:15:05;5.20;;;4.72;;
10497;SDS011;5296;51.060;13.750;2023-06-26T07:20:07;6.43;;;4.90;;
10497;SDS011;5296;51.060;13.750;2023-06-26T07:25:11;5.28;;;4.60;;
10497;SDS011;5296;51.060;13.750;2023-06-26T07:30:13;5.63;;;5.03;;
10497;SDS011;5296;51.060;13.750;2023-06-26T07:35:14;5.32;;;4.55;;
10497;SDS011;5296;51.060;13.750;2023-06-26T07:40:16;4.55;;;4.15;;
10497;SDS011;5296;51.060;13.750;2023-06-26T07:45:19;4.88;;;4.43;;
10497;SDS011;5296;51.060;13.750;2023-06-26T07:50:21;5.38;;;4.82;;
10497;SDS011;5296;51.060;13.750;2023-06-26T07:55:24;4.75;;;4.35;;
10497;SDS011;5296;51.060;13.750;2023-06-26T08:00:28;5.03;;;4.63;;
10497;SDS011;5296;51.060;13.750;2023-06-26T08:05:30;5.00;;;4.50;;
10497;SDS011;5296;51.060;13.750;2023-06-26T08:10:32;5.80;;;4.43;;
10497;SDS011;5296;51.060;13.750;2023-06-26T08:15:34;5.30;;;4.80;;
10497;SDS011;5296;51.060;13.750;2023-06-26T08:20:36;5.68;;;4.55;;
10497;SDS011;5296;51.060;13.750;2023-06-26T08:25:38;7.78;;;5.07;;
10497;SDS011;5296;51.060;13.750;2023-06-26T08:30:40;5.20;;;4.55;;
10497;SDS011;5296;51.060;13.750;2023-06-26T08:35:42;5.82;;;4.50;;
10497;SDS011;5296;51.060;13.750;2023-06-26T08:40:44;5.97;;;4.88;;
10497;SDS011;5296;51.060;13.750;2023-06-26T08:45:45;5.13;;;4.72;;
10497;SDS011;5296;51.060;13.750;2023-06-26T08:50:49;4.70;;;4.30;;
10497;SDS011;5296;51.060;13.750;2023-06-26T08:55:54;6.88;;;4.95;;
10497;SDS011;5296;51.060;13.750;2023-06-26T09:00:56;5.72;;;5.10;;
10497;SDS011;5296;51.060;13.750;2023-06-26T09:05:58;5.72;;;4.85;;
10497;SDS011;5296;51.060;13.750;2023-06-26T09:11:00;6.55;;;4.97;;
10497;SDS011;5296;51.060;13.750;2023-06-26T09:16:08;7.10;;;5.20;;
10497;SDS011;5296;51.060;13.750;2023-06-26T09:21:10;4.80;;;4.40;;
10497;SDS011;5296;51.060;13.750;2023-06-26T09:26:13;7.93;;;5.35;;
10497;SDS011;5296;51.060;13.750;2023-06-26T09:31:15;5.20;;;4.70;;
10497;SDS011;5296;51.060;13.750;2023-06-26T09:36:39;6.38;;;4.88;;
10497;SDS011;5296;51.060;13.750;2023-06-26T09:41:43;5.50;;;5.00;;
10497;SDS011;5296;51.060;13.750;2023-06-26T09:46:46;6.40;;;5.10;;
10497;SDS011;5296;51.060;13.750;2023-06-26T09:51:48;8.10;;;5.10;;
10497;SDS011;5296;51.060;13.750;2023-06-26T09:56:50;6.82;;;4.97;;
10497;SDS011;5296;51.060;13.750;2023-06-26T10:01:58;5.88;;;5.00;;
10497;SDS011;5296;51.060;13.750;2023-06-26T10:07:01;5.20;;;4.80;;
10497;SDS011;5296;51.060;13.750;2023-06-26T10:12:11;4.57;;;4.18;;
10497;SDS011;5296;51.060;13.750;2023-06-26T10:17:18;4.90;;;4.50;;
10497;SDS011;5296;51.060;13.750;2023-06-26T10:22:23;4.82;;;4.30;;
10497;SDS011;5296;51.060;13.750;2023-06-26T10:27:30;4.93;;;4.50;;
10497;SDS011;5296;51.060;13.750;2023-06-26T10:32:36;4.85;;;4.45;;
10497;SDS011;5296;51.060;13.750;2023-06-26T10:37:45;4.88;;;4.45;;
10497;SDS011;5296;51.060;13.750;2023-06-26T10:42:47;4.82;;;4.43;;
10497;SDS011;5296;51.060;13.750;2023-06-26T10:47:51;4.93;;;4.53;;
10497;SDS011;5296;51.060;13.750;2023-06-26T10:53:10;4.47;;;3.97;;
10497;SDS011;5296;51.060;13.750;2023-06-26T11:03:42;5.00;;;4.60;;
10497;SDS011;5296;51.060;13.750;2023-06-26T11:08:46;5.40;;;4.82;;
10497;SDS011;5296;51.060;13.750;2023-06-26T11:14:21;4.53;;;4.22;;
10497;SDS011;5296;51.060;13.750;2023-06-26T11:19:25;6.55;;;4.85;;
10497;SDS011;5296;51.060;13.750;2023-06-26T11:24:28;4.88;;;4.22;;
10497;SDS011;5296;51.060;13.750;2023-06-26T11:29:31;5.03;;;4.50;;
10497;SDS011;5296;51.060;13.750;2023-06-26T11:34:33;4.82;;;4.43;;
10497;SDS011;5296;51.060;13.750;2023-06-26T11:39:35;6.10;;;5.28;;
10497;SDS011;5296;51.060;13.750;2023-06-26T11:44:41;5.15;;;4.75;;
10497;SDS011;5296;51.060;13.750;2023-06-26T11:49:47;5.47;;;4.85;;
10497;SDS011;5296;51.060;13.750;2023-06-26T11:54:50;4.88;;;4.47;;
10497;SDS011;5296;51.060;13.750;2023-06-26T11:59:53;4.85;;;4.45;;
10497;SDS011;5296;51.060;13.750;2023-06-26T12:04:55;5.07;;;4.40;;
10497;SDS011;5296;51.060;13.750;2023-06-26T12:09:57;5.93;;;4.22;;
10497;SDS011;5296;51.060;13.750;2023-06-26T12:14:59;6.30;;;4.85;;
10497;SDS011;5296;51.060;13.750;2023-06-26T12:20:02;5.32;;;4.88;;
10497;SDS011;5296;51.060;13.750;2023-06-26T12:25:07;4.90;;;4.50;;
10497;SDS011;5296;51.060;13.750;2023-06-26T12:30:09;5.75;;;5.22;;
10497;SDS011;5296;51.060;13.750;2023-06-26T12:35:11;4.78;;;4.35;;
10497;SDS011;5296;51.060;13.750;2023-06-26T12:40:16;5.20;;;4.75;;
10497;SDS011;5296;51.060;13.750;2023-06-26T12:45:19;4.82;;;4.38;;
10497;SDS011;5296;51.060;13.750;2023-06-26T12:50:24;4.85;;;4.35;;
10497;SDS011;5296;51.060;13.750;2023-06-26T12:55:26;8.95;;;4.97;;
10497;SDS011;5296;51.060;13.750;2023-06-26T13:00:27;4.90;;;4.40;;
10497;SDS011;5296;51.060;13.750;2023-06-26T13:05:29;4.82;;;4.38;;
10497;SDS011;5296;51.060;13.750;2023-06-26T13:10:31;5.07;;;4.63;;
10497;SDS011;5296;51.060;13.750;2023-06-26T13:15:32;4.88;;;4.40;;
10497;SDS011;5296;51.060;13.750;2023-06-26T13:20:34;6.45;;;4.50;;
10497;SDS011;5296;51.060;13.750;2023-06-26T13:25:37;4.90;;;4.40;;
10497;SDS011;5296;51.060;13.750;2023-06-26T13:30:38;4.55;;;4.18;;
10497;SDS011;5296;51.060;13.750;2023-06-26T13:35:40;4.80;;;4.38;;
10497;SDS011;5296;51.060;13.750;2023-06-26T13:40:42;5.65;;;4.40;;
10497;SDS011;5296;51.060;13.750;2023-06-26T13:45:44;4.57;;;4.18;;
10497;SDS011;5296;51.060;13.750;2023-06-26T13:50:46;4.78;;;4.38;;
10497;SDS011;5296;51.060;13.750;2023-06-26T13:55:55;5.50;;;5.00;;
10497;SDS011;5296;51.060;13.750;2023-06-26T14:00:56;4.50;;;4.10;;
10497;SDS011;5296;51.060;13.750;2023-06-26T14:05:59;6.47;;;4.55;;
10497;SDS011;5296;51.060;13.750;2023-06-26T14:11:00;5.13;;;4.70;;
10497;SDS011;5296;51.060;13.750;2023-06-26T14:16:02;5.22;;;4.72;;
10497;SDS011;5296;51.060;13.750;2023-06-26T14:21:04;5.80;;;5.30;;
10497;SDS011;5296;51.060;13.750;2023-06-26T14:26:06;5.00;;;4.60;;
10497;SDS011;5296;51.060;13.750;2023-06-26T14:31:07;5.10;;;4.70;;
10497;SDS011;5296;51.060;13.750;2023-06-26T14:36:09;5.28;;;4.78;;
10497;SDS011;5296;51.060;13.750;2023-06-26T14:41:11;6.05;;;5.45;;
10497;SDS011;5296;51.060;13.750;2023-06-26T14:46:13;5.55;;;5.03;;
10497;SDS011;5296;51.060;13.750;2023-06-26T14:51:16;5.28;;;4.85;;
10497;SDS011;5296;51.060;13.750;2023-06-26T14:56:17;5.40;;;5.00;;
10497;SDS011;5296;51.060;13.750;2023-06-26T15:01:19;6.65;;;4.68;;
10497;SDS011;5296;51.060;13.750;2023-06-26T15:06:21;5.68;;;4.97;;
10497;SDS011;5296;51.060;13.750;2023-06-26T15:11:23;6.00;;;5.40;;
10497;SDS011;5296;51.060;13.750;2023-06-26T15:16:25;5.60;;;5.10;;
10497;SDS011;5296;51.060;13.750;2023-06-26T15:21:26;7.25;;;5.38;;
10497;SDS011;5296;51.060;13.750;2023-06-26T15:26:29;5.75;;;5.25;;
10497;SDS011;5296;51.060;13.750;2023-06-26T15:31:30;5.85;;;5.22;;
10497;SDS011;5296;51.060;13.750;2023-06-26T15:36:32;5.63;;;5.00;;
10497;SDS011;5296;51.060;13.750;2023-06-26T15:41:34;6.30;;;5.70;;
10497;SDS011;5296;51.060;13.750;2023-06-26T15:46:38;6.88;;;5.32;;
10497;SDS011;5296;51.060;13.750;2023-06-26T15:51:40;5.70;;;5.03;;
10497;SDS011;5296;51.060;13.750;2023-06-26T15:56:43;6.07;;;5.53;;
10497;SDS011;5296;51.060;13.750;2023-06-26T16:01:45;6.28;;;5.28;;
10497;SDS011;5296;51.060;13.750;2023-06-26T16:06:50;6.15;;;5.22;;
10497;SDS011;5296;51.060;13.750;2023-06-26T16:11:51;6.15;;;5.47;;
10497;SDS011;5296;51.060;13.750;2023-06-26T16:16:53;7.90;;;5.38;;
10497;SDS011;5296;51.060;13.750;2023-06-26T16:21:55;16.52;;;6.30;;
10497;SDS011;5296;51.060;13.750;2023-06-26T16:26:56;16.85;;;6.65;;
10497;SDS011;5296;51.060;13.750;2023-06-26T16:31:59;13.77;;;6.28;;
10497;SDS011;5296;51.060;13.750;2023-06-26T16:37:01;10.80;;;6.53;;
10497;SDS011;5296;51.060;13.750;2023-06-26T16:42:08;12.57;;;7.38;;
10497;SDS011;5296;51.060;13.750;2023-06-26T16:47:10;9.32;;;7.03;;
10497;SDS011;5296;51.060;13.750;2023-06-26T16:52:11;8.57;;;7.00;;
10497;SDS011;5296;51.060;13.750;2023-06-26T16:57:14;8.68;;;7.03;;
10497;SDS011;5296;51.060;13.750;2023-06-26T17:02:16;6.80;;;6.13;;
10497;SDS011;5296;51.060;13.750;2023-06-26T17:07:18;8.20;;;6.28;;
10497;SDS011;5296;51.060;13.750;2023-06-26T17:12:20;8.55;;;5.93;;
10497;SDS011;5296;51.060;13.750;2023-06-26T17:17:22;7.22;;;5.90;;
10497;SDS011;5296;51.060;13.750;2023-06-26T17:22:24;6.80;;;6.10;;
10497;SDS011;5296;51.060;13.750;2023-06-26T17:27:26;7.50;;;6.80;;
10497;SDS011;5296;51.060;13.750;2023-06-26T17:32:29;9.13;;;6.28;;
10497;SDS011;5296;51.060;13.750;2023-06-26T17:37:31;8.82;;;6.93;;
10497;SDS011;5296;51.060;13.750;2023-06-26T17:42:33;8.05;;;7.25;;
10497;SDS011;5296;51.060;13.750;2023-06-26T17:47:35;8.07;;;7.05;;
10497;SDS011;5296;51.060;13.750;2023-06-26T17:52:36;10.32;;;7.75;;
10497;SDS011;5296;51.060;13.750;2023-06-26T17:57:38;8.70;;;7.80;;
10497;SDS011;5296;51.060;13.750;2023-06-26T18:02:40;8.38;;;7.40;;
10497;SDS011;5296;51.060;13.750;2023-06-26T18:07:43;9.55;;;8.15;;
10497;SDS011;5296;51.060;13.750;2023-06-26T18:13:03;11.27;;;8.23;;
10497;SDS011;5296;51.060;13.750;2023-06-26T18:18:05;9.48;;;8.57;;
10497;SDS011;5296;51.060;13.750;2023-06-26T18:23:07;10.13;;;9.23;;
10497;SDS011;5296;51.060;13.750;2023-06-26T18:28:08;9.35;;;8.52;;
10497;SDS011;5296;51.060;13.750;2023-06-26T18:33:10;10.45;;;7.82;;
10497;SDS011;5296;51.060;13.750;2023-06-26T18:38:12;9.18;;;7.45;;
10497;SDS011;5296;51.060;13.750;2023-06-26T18:43:14;7.50;;;6.75;;
10497;SDS011;5296;51.060;13.750;2023-06-26T18:48:16;7.38;;;6.68;;
10497;SDS011;5296;51.060;13.750;2023-06-26T18:53:17;8.10;;;7.32;;
10497;SDS011;5296;51.060;13.750;2023-06-26T18:58:19;7.82;;;7.03;;
10497;SDS011;5296;51.060;13.750;2023-06-26T19:03:21;9.10;;;7.90;;
10497;SDS011;5296;51.060;13.750;2023-06-26T19:08:23;9.63;;;7.47;;
10497;SDS011;5296;51.060;13.750;2023-06-26T19:13:24;7.90;;;7.20;;
10497;SDS011;5296;51.060;13.750;2023-06-26T19:18:27;8.90;;;7.80;;
10497;SDS011;5296;51.060;13.750;2023-06-26T19:23:29;7.93;;;7.22;;
10497;SDS011;5296;51.060;13.750;2023-06-26T19:28:31;8.70;;;7.40;;
10497;SDS011;5296;51.060;13.750;2023-06-26T19:33:32;8.68;;;7.78;;
10497;SDS011;5296;51.060;13.750;2023-06-26T19:38:34;7.38;;;6.70;;
10497;SDS011;5296;51.060;13.750;2023-06-26T19:43:36;9.10;;;7.38;;
10497;SDS011;5296;51.060;13.750;2023-06-26T19:48:37;8.65;;;7.60;;
10497;SDS011;5296;51.060;13.750;2023-06-26T19:53:39;8.00;;;7.30;;
10497;SDS011;5296;51.060;13.750;2023-06-26T19:58:41;11.80;;;10.10;;
10497;SDS011;5296;51.060;13.750;2023-06-26T20:03:42;8.43;;;7.35;;
10497;SDS011;5296;51.060;13.750;2023-06-26T20:08:44;8.13;;;7.25;;
10497;SDS011;5296;51.060;13.750;2023-06-26T20:13:46;7.75;;;6.95;;
10497;SDS011;5296;51.060;13.750;2023-06-26T20:18:48;8.65;;;7.72;;
10497;SDS011;5296;51.060;13.750;2023-06-26T20:23:49;8.18;;;7.38;;
10497;SDS011;5296;51.060;13.750;2023-06-26T20:28:51;8.80;;;7.30;;
10497;SDS011;5296;51.060;13.750;2023-06-26T20:33:53;9.15;;;7.47;;
10497;SDS011;5296;51.060;13.750;2023-06-26T20:38:54;8.88;;;7.22;;
10497;SDS011;5296;51.060;13.750;2023-06-26T20:43:56;8.68;;;7.63;;
10497;SDS011;5296;51.060;13.750;2023-06-26T20:48:58;9.57;;;7.25;;
10497;SDS011;5296;51.060;13.750;2023-06-26T20:54:00;10.77;;;7.47;;
10497;SDS011;5296;51.060;13.750;2023-06-26T20:59:02;8.00;;;7.20;;
10497;SDS011;5296;51.060;13.750;2023-06-26T21:04:04;8.60;;;7.50;;
10497;SDS011;5296;51.060;13.750;2023-06-26T21:09:06;8.93;;;8.00;;
10497;SDS011;5296;51.060;13.750;2023-06-26T21:14:07;9.63;;;7.57;;
10497;SDS011;5296;51.060;13.750;2023-06-26T21:19:11;8.55;;;7.70;;
10497;SDS011;5296;51.060;13.750;2023-06-26T21:24:12;8.45;;;7.32;;
10497;SDS011;5296;51.060;13.750;2023-06-26T21:29:14;8.50;;;7.28;;
10497;SDS011;5296;51.060;13.750;2023-06-26T21:34:15;7.97;;;7.28;;
10497;SDS011;5296;51.060;13.750;2023-06-26T21:39:17;8.88;;;8.07;;
10497;SDS011;5296;51.060;13.750;2023-06-26T21:44:19;9.45;;;8.43;;
10497;SDS011;5296;51.060;13.750;2023-06-26T21:49:20;8.30;;;7.50;;
10497;SDS011;5296;51.060;13.750;2023-06-26T21:54:22;9.15;;;8.40;;
10497;SDS011;5296;51.060;13.750;2023-06-26T21:59:24;9.00;;;8.20;;
10497;SDS011;5296;51.060;13.750;2023-06-26T22:04:26;9.02;;;8.20;;
10497;SDS011;5296;51.060;13.750;2023-06-26T22:09:28;10.82;;;8.68;;
10497;SDS011;5296;51.060;13.750;2023-06-26T22:14:29;9.75;;;8.30;;
10497;SDS011;5296;51.060;13.750;2023-06-26T22:19:31;9.18;;;8.27;;
10497;SDS011;5296;51.060;13.750;2023-06-26T22:24:33;9.32;;;8.05;;
10497;SDS011;5296;51.060;13.750;2023-06-26T22:29:34;11.05;;;8.63;;
10497;SDS011;5296;51.060;13.750;2023-06-26T22:34:36;10.73;;;9.13;;
10497;SDS011;5296;51.060;13.750;2023-06-26T22:39:38;8.95;;;8.00;;
10497;SDS011;5296;51.060;13.750;2023-06-26T22:44:40;10.45;;;7.93;;
10497;SDS011;5296;51.060;13.750;2023-06-26T22:49:41;10.73;;;7.70;;
10497;SDS011;5296;51.060;13.750;2023-06-26T22:54:43;7.93;;;7.05;;
10497;SDS011;5296;51.060;13.750;2023-06-26T22:59:45;10.52;;;7.18;;
10497;SDS011;5296;51.060;13.750;2023-06-26T23:04:48;8.65;;;7.78;;
10497;SDS011;5296;51.060;13.750;2023-06-26T23:09:49;9.02;;;7.38;;
10497;SDS011;5296;51.060;13.750;2023-06-26T23:14:51;10.80;;;8.18;;
10497;SDS011;5296;51.060;13.750;2023-06-26T23:19:53;13.15;;;7.57;;
10497;SDS011;5296;51.060;13.750;2023-06-26T23:24:54;8.13;;;7.32;;
10497;SDS011;5296;51.060;13.750;2023-06-26T23:29:59;9.32;;;7.45;;
10497;SDS011;5296;51.060;13.750;2023-06-26T23:35:00;5.38;;;4.22;;
10497;SDS011;5296;51.060;13.750;2023-06-26T23:40:02;4.32;;;3.58;;
10497;SDS011;5296;51.060;13.750;2023-06-26T23:45:10;4.70;;;3.25;;
10497;SDS011;5296;51.060;13.750;2023-06-26T23:50:12;3.63;;;3.17;;
10497;SDS011;5296;51.060;13.750;2023-06-26T23:55:14;4.88;;;2.78;;
